sensor_id;sensor_type;location;lat;lon;timestamp;temperature;humidity
3037;DHT22;1528;52.550;13.408;2023-01-28T00:01:56;2.80;31.50
3037;DHT22;1528;52.550;13.408;2023-01-28T00:04:42;2.60;32.10
3037;DHT22;1528;52.550;13.408;2023-01-28T00:07:28;2.60;32.50
3037;DHT22;1528;52.550;13.408;2023-01-28T00:10:14;2.70;32.30
3037;DHT22;1528;52.550;13.408;2023-01-28T00:13:00;2.40;32.60
3037;DHT22;1528;52.550;13.408;2023-01-28T00:15:54;2.50;33.40
3037;DHT22;1528;52.550;13.408;2023-01-28T00:18:40;2.40;32.60
3037;DHT22;1528;52.550;13.408;2023-01-28T00:21:25;2.40;32.60
3037;DHT22;1528;52.550;13.408;2023-01-28T00:24:11;2.40;32.70
3037;DHT22;1528;52.550;13.408;2023-01-28T00:26:56;2.30;33.70
3037;DHT22;1528;52.550;13.408;2023-01-28T00:29:42;2.30;32.90
3037;DHT22;1528;52.550;13.408;2023-01-28T00:32:30;2.30;32.90
3037;DHT22;1528;52.550;13.408;2023-01-28T00:35:15;2.30;33.00
3037;DHT22;1528;52.550;13.408;2023-01-28T00:38:01;2.40;32.40
3037;DHT22;1528;52.550;13.408;2023-01-28T00:40:47;2.40;32.40
3037;DHT22;1528;52.550;13.408;2023-01-28T00:43:33;2.30;32.70
3037;DHT22;1528;52.550;13.408;2023-01-28T00:46:20;2.30;32.70
3037;DHT22;1528;52.550;13.408;2023-01-28T00:49:08;2.30;32.90
3037;DHT22;1528;52.550;13.408;2023-01-28T00:51:53;2.10;32.90
3037;DHT22;1528;52.550;13.408;2023-01-28T00:54:39;2.20;32.80
3037;DHT22;1528;52.550;13.408;2023-01-28T00:57:24;2.20;32.60
3037;DHT22;1528;52.550;13.408;2023-01-28T01:00:11;2.10;32.50
3037;DHT22;1528;52.550;13.408;2023-01-28T01:02:56;2.20;32.50
3037;DHT22;1528;52.550;13.408;2023-01-28T01:05:44;2.20;33.00
3037;DHT22;1528;52.550;13.408;2023-01-28T01:08:29;1.90;33.20
3037;DHT22;1528;52.550;13.408;2023-01-28T01:11:19;1.80;33.00
3037;DHT22;1528;52.550;13.408;2023-01-28T01:14:04;1.80;33.80
3037;DHT22;1528;52.550;13.408;2023-01-28T01:16:50;1.80;33.10
3037;DHT22;1528;52.550;13.408;2023-01-28T01:19:36;1.80;33.30
3037;DHT22;1528;52.550;13.408;2023-01-28T01:22:23;1.90;32.90
3037;DHT22;1528;52.550;13.408;2023-01-28T01:25:09;1.70;33.60
3037;DHT22;1528;52.550;13.408;2023-01-28T01:27:55;1.80;33.90
3037;DHT22;1528;52.550;13.408;2023-01-28T01:30:41;2.00;33.40
3037;DHT22;1528;52.550;13.408;2023-01-28T01:33:27;2.20;32.80
3037;DHT22;1528;52.550;13.408;2023-01-28T01:36:14;2.30;32.50
3037;DHT22;1528;52.550;13.408;2023-01-28T01:39:03;2.40;32.10
3037;DHT22;1528;52.550;13.408;2023-01-28T01:41:51;2.40;31.80
3037;DHT22;1528;52.550;13.408;2023-01-28T01:44:56;2.50;31.20
3037;DHT22;1528;52.550;13.408;2023-01-28T01:47:46;2.40;31.50
3037;DHT22;1528;52.550;13.408;2023-01-28T01:50:36;2.40;31.60
3037;DHT22;1528;52.550;13.408;2023-01-28T01:53:24;2.50;31.60
3037;DHT22;1528;52.550;13.408;2023-01-28T01:56:16;2.60;31.00
3037;DHT22;1528;52.550;13.408;2023-01-28T01:59:03;2.60;31.20
3037;DHT22;1528;52.550;13.408;2023-01-28T02:01:51;2.70;31.10
3037;DHT22;1528;52.550;13.408;2023-01-28T02:04:39;2.80;30.70
3037;DHT22;1528;52.550;13.408;2023-01-28T02:07:25;2.80;30.70
3037;DHT22;1528;52.550;13.408;2023-01-28T02:10:11;2.80;30.90
3037;DHT22;1528;52.550;13.408;2023-01-28T02:13:00;2.90;30.20
3037;DHT22;1528;52.550;13.408;2023-01-28T02:15:45;3.00;30.10
3037;DHT22;1528;52.550;13.408;2023-01-28T02:18:32;3.10;29.90
3037;DHT22;1528;52.550;13.408;2023-01-28T02:21:35;3.00;29.80
3037;DHT22;1528;52.550;13.408;2023-01-28T02:24:48;3.00;29.90
3037;DHT22;1528;52.550;13.408;2023-01-28T02:27:53;3.10;29.60
3037;DHT22;1528;52.550;13.408;2023-01-28T02:30:45;3.00;29.60
3037;DHT22;1528;52.550;13.408;2023-01-28T02:33:34;3.10;29.90
3037;DHT22;1528;52.550;13.408;2023-01-28T02:36:28;3.10;30.00
3037;DHT22;1528;52.550;13.408;2023-01-28T02:39:19;3.20;29.90
3037;DHT22;1528;52.550;13.408;2023-01-28T02:42:08;3.20;29.80
3037;DHT22;1528;52.550;13.408;2023-01-28T02:44:55;3.20;29.90
3037;DHT22;1528;52.550;13.408;2023-01-28T02:47:41;3.20;29.90
3037;DHT22;1528;52.550;13.408;2023-01-28T02:50:47;3.00;29.80
3037;DHT22;1528;52.550;13.408;2023-01-28T02:53:39;3.20;29.80
3037;DHT22;1528;52.550;13.408;2023-01-28T02:56:31;3.20;29.10
3037;DHT22;1528;52.550;13.408;2023-01-28T02:59:22;3.10;29.70
3037;DHT22;1528;52.550;13.408;2023-01-28T03:02:23;3.20;29.30
3037;DHT22;1528;52.550;13.408;2023-01-28T03:05:15;3.30;29.40
3037;DHT22;1528;52.550;13.408;2023-01-28T03:08:04;3.40;29.40
3037;DHT22;1528;52.550;13.408;2023-01-28T03:11:11;3.40;28.90
3037;DHT22;1528;52.550;13.408;2023-01-28T03:14:15;3.50;29.80
3037;DHT22;1528;52.550;13.408;2023-01-28T03:17:26;3.30;28.90
3037;DHT22;1528;52.550;13.408;2023-01-28T03:20:37;3.30;28.60
3037;DHT22;1528;52.550;13.408;2023-01-28T03:23:49;3.20;28.80
3037;DHT22;1528;52.550;13.408;2023-01-28T03:27:01;3.30;28.80
3037;DHT22;1528;52.550;13.408;2023-01-28T03:30:11;3.50;28.90
3037;DHT22;1528;52.550;13.408;2023-01-28T03:33:18;3.30;28.20
3037;DHT22;1528;52.550;13.408;2023-01-28T03:36:22;3.30;28.40
3037;DHT22;1528;52.550;13.408;2023-01-28T03:39:27;3.30;28.20
3037;DHT22;1528;52.550;13.408;2023-01-28T03:42:13;3.30;28.50
3037;DHT22;1528;52.550;13.408;2023-01-28T03:45:01;3.20;28.20
3037;DHT22;1528;52.550;13.408;2023-01-28T03:47:48;3.30;28.10
3037;DHT22;1528;52.550;13.408;2023-01-28T03:50:35;3.40;27.80
3037;DHT22;1528;52.550;13.408;2023-01-28T03:53:21;3.40;27.50
3037;DHT22;1528;52.550;13.408;2023-01-28T03:56:07;3.50;27.30
3037;DHT22;1528;52.550;13.408;2023-01-28T03:58:53;3.60;26.10
3037;DHT22;1528;52.550;13.408;2023-01-28T04:01:40;3.60;26.30
3037;DHT22;1528;52.550;13.408;2023-01-28T04:04:25;3.60;26.40
3037;DHT22;1528;52.550;13.408;2023-01-28T04:07:13;3.60;26.20
3037;DHT22;1528;52.550;13.408;2023-01-28T04:09:59;3.70;26.30
3037;DHT22;1528;52.550;13.408;2023-01-28T04:12:45;3.70;26.20
3037;DHT22;1528;52.550;13.408;2023-01-28T04:15:33;3.50;26.20
3037;DHT22;1528;52.550;13.408;2023-01-28T04:18:19;3.60;26.20
3037;DHT22;1528;52.550;13.408;2023-01-28T04:21:10;3.60;25.10
3037;DHT22;1528;52.550;13.408;2023-01-28T04:23:57;3.60;25.00
3037;DHT22;1528;52.550;13.408;2023-01-28T04:26:42;3.70;24.60
3037;DHT22;1528;52.550;13.408;2023-01-28T04:29:28;3.40;24.50
3037;DHT22;1528;52.550;13.408;2023-01-28T04:32:14;3.60;24.90
3037;DHT22;1528;52.550;13.408;2023-01-28T04:35:00;3.60;24.80
3037;DHT22;1528;52.550;13.408;2023-01-28T04:37:46;3.80;24.70
3037;DHT22;1528;52.550;13.408;2023-01-28T04:40:33;3.90;24.10
3037;DHT22;1528;52.550;13.408;2023-01-28T04:43:18;4.00;24.10
3037;DHT22;1528;52.550;13.408;2023-01-28T04:46:04;4.00;24.40
3037;DHT22;1528;52.550;13.408;2023-01-28T04:48:50;3.90;24.60
3037;DHT22;1528;52.550;13.408;2023-01-28T04:51:35;3.90;24.30
3037;DHT22;1528;52.550;13.408;2023-01-28T04:54:21;3.90;24.30
3037;DHT22;1528;52.550;13.408;2023-01-28T04:57:08;3.80;24.70
3037;DHT22;1528;52.550;13.408;2023-01-28T04:59:53;3.90;24.20
3037;DHT22;1528;52.550;13.408;2023-01-28T05:02:39;3.80;24.40
3037;DHT22;1528;52.550;13.408;2023-01-28T05:05:25;3.80;23.90
3037;DHT22;1528;52.550;13.408;2023-01-28T05:08:10;3.90;24.00
3037;DHT22;1528;52.550;13.408;2023-01-28T05:10:56;3.90;23.60
3037;DHT22;1528;52.550;13.408;2023-01-28T05:13:43;4.00;23.40
3037;DHT22;1528;52.550;13.408;2023-01-28T05:16:28;4.00;23.20
3037;DHT22;1528;52.550;13.408;2023-01-28T05:19:15;3.80;23.70
3037;DHT22;1528;52.550;13.408;2023-01-28T05:22:00;3.90;23.70
3037;DHT22;1528;52.550;13.408;2023-01-28T05:24:46;4.00;23.40
3037;DHT22;1528;52.550;13.408;2023-01-28T05:27:32;4.10;23.20
3037;DHT22;1528;52.550;13.408;2023-01-28T05:30:19;4.10;23.10
3037;DHT22;1528;52.550;13.408;2023-01-28T05:33:05;4.10;23.00
3037;DHT22;1528;52.550;13.408;2023-01-28T05:35:51;4.10;23.20
3037;DHT22;1528;52.550;13.408;2023-01-28T05:38:36;4.00;23.40
3037;DHT22;1528;52.550;13.408;2023-01-28T05:41:22;4.00;23.00
3037;DHT22;1528;52.550;13.408;2023-01-28T05:44:07;4.10;23.50
3037;DHT22;1528;52.550;13.408;2023-01-28T05:46:54;4.20;23.10
3037;DHT22;1528;52.550;13.408;2023-01-28T05:49:40;4.10;22.80
3037;DHT22;1528;52.550;13.408;2023-01-28T05:52:25;4.20;22.90
3037;DHT22;1528;52.550;13.408;2023-01-28T05:55:11;4.20;24.00
3037;DHT22;1528;52.550;13.408;2023-01-28T05:57:57;4.20;22.90
3037;DHT22;1528;52.550;13.408;2023-01-28T06:00:42;4.20;23.00
3037;DHT22;1528;52.550;13.408;2023-01-28T06:03:30;4.10;23.20
3037;DHT22;1528;52.550;13.408;2023-01-28T06:06:15;4.20;23.30
3037;DHT22;1528;52.550;13.408;2023-01-28T06:09:01;4.30;23.20
3037;DHT22;1528;52.550;13.408;2023-01-28T06:11:46;4.30;22.80
3037;DHT22;1528;52.550;13.408;2023-01-28T06:14:33;4.30;22.90
3037;DHT22;1528;52.550;13.408;2023-01-28T06:17:19;4.40;23.00
3037;DHT22;1528;52.550;13.408;2023-01-28T06:20:06;4.30;23.30
3037;DHT22;1528;52.550;13.408;2023-01-28T06:22:52;4.30;22.70
3037;DHT22;1528;52.550;13.408;2023-01-28T06:25:38;4.30;22.90
3037;DHT22;1528;52.550;13.408;2023-01-28T06:28:24;4.30;22.60
3037;DHT22;1528;52.550;13.408;2023-01-28T06:31:09;4.40;22.50
3037;DHT22;1528;52.550;13.408;2023-01-28T06:33:55;4.30;22.70
3037;DHT22;1528;52.550;13.408;2023-01-28T06:36:42;4.30;23.10
3037;DHT22;1528;52.550;13.408;2023-01-28T06:39:28;4.40;22.50
3037;DHT22;1528;52.550;13.408;2023-01-28T06:42:14;4.40;22.40
3037;DHT22;1528;52.550;13.408;2023-01-28T06:45:00;4.40;22.20
3037;DHT22;1528;52.550;13.408;2023-01-28T06:47:46;4.30;22.30
3037;DHT22;1528;52.550;13.408;2023-01-28T06:50:31;4.30;23.00
3037;DHT22;1528;52.550;13.408;2023-01-28T06:53:18;4.30;21.80
3037;DHT22;1528;52.550;13.408;2023-01-28T06:56:05;4.40;22.00
3037;DHT22;1528;52.550;13.408;2023-01-28T06:58:51;4.00;21.30
3037;DHT22;1528;52.550;13.408;2023-01-28T07:01:36;3.80;21.90
3037;DHT22;1528;52.550;13.408;2023-01-28T07:04:22;3.90;22.20
3037;DHT22;1528;52.550;13.408;2023-01-28T07:07:08;4.20;21.80
3037;DHT22;1528;52.550;13.408;2023-01-28T07:09:55;4.30;21.40
3037;DHT22;1528;52.550;13.408;2023-01-28T07:12:40;4.30;21.80
3037;DHT22;1528;52.550;13.408;2023-01-28T07:15:26;4.60;21.70
3037;DHT22;1528;52.550;13.408;2023-01-28T07:18:11;4.20;21.80
3037;DHT22;1528;52.550;13.408;2023-01-28T07:20:57;4.10;22.20
3037;DHT22;1528;52.550;13.408;2023-01-28T07:23:42;4.30;22.30
3037;DHT22;1528;52.550;13.408;2023-01-28T07:26:30;4.30;22.50
3037;DHT22;1528;52.550;13.408;2023-01-28T07:29:15;4.40;20.70
3037;DHT22;1528;52.550;13.408;2023-01-28T07:32:01;4.40;20.40
3037;DHT22;1528;52.550;13.408;2023-01-28T07:34:47;4.40;20.80
3037;DHT22;1528;52.550;13.408;2023-01-28T07:37:33;4.50;21.10
3037;DHT22;1528;52.550;13.408;2023-01-28T07:40:19;4.50;21.00
3037;DHT22;1528;52.550;13.408;2023-01-28T07:43:07;4.50;20.40
3037;DHT22;1528;52.550;13.408;2023-01-28T07:45:53;4.40;20.90
3037;DHT22;1528;52.550;13.408;2023-01-28T07:48:38;4.50;20.90
3037;DHT22;1528;52.550;13.408;2023-01-28T07:51:24;4.40;21.70
3037;DHT22;1528;52.550;13.408;2023-01-28T07:54:10;4.20;21.30
3037;DHT22;1528;52.550;13.408;2023-01-28T07:56:55;4.30;21.40
3037;DHT22;1528;52.550;13.408;2023-01-28T07:59:42;4.40;20.60
3037;DHT22;1528;52.550;13.408;2023-01-28T08:02:28;4.30;21.00
3037;DHT22;1528;52.550;13.408;2023-01-28T08:05:17;4.40;20.40
3037;DHT22;1528;52.550;13.408;2023-01-28T08:08:03;4.40;21.00
3037;DHT22;1528;52.550;13.408;2023-01-28T08:10:49;4.50;21.00
3037;DHT22;1528;52.550;13.408;2023-01-28T08:13:35;4.70;20.70
3037;DHT22;1528;52.550;13.408;2023-01-28T08:16:21;4.80;20.60
3037;DHT22;1528;52.550;13.408;2023-01-28T08:19:07;4.90;20.30
3037;DHT22;1528;52.550;13.408;2023-01-28T08:21:53;4.90;19.80
3037;DHT22;1528;52.550;13.408;2023-01-28T08:24:38;5.00;19.20
3037;DHT22;1528;52.550;13.408;2023-01-28T08:27:24;4.60;19.40
3037;DHT22;1528;52.550;13.408;2023-01-28T08:30:10;4.60;19.90
3037;DHT22;1528;52.550;13.408;2023-01-28T08:32:58;4.60;19.00
3037;DHT22;1528;52.550;13.408;2023-01-28T08:35:44;4.70;19.20
3037;DHT22;1528;52.550;13.408;2023-01-28T08:38:29;4.70;20.10
3037;DHT22;1528;52.550;13.408;2023-01-28T08:41:15;4.80;19.20
3037;DHT22;1528;52.550;13.408;2023-01-28T08:44:01;5.00;18.60
3037;DHT22;1528;52.550;13.408;2023-01-28T08:46:46;4.80;18.20
3037;DHT22;1528;52.550;13.408;2023-01-28T08:49:33;5.00;18.90
3037;DHT22;1528;52.550;13.408;2023-01-28T08:52:19;5.20;18.40
3037;DHT22;1528;52.550;13.408;2023-01-28T08:55:06;5.30;18.30
3037;DHT22;1528;52.550;13.408;2023-01-28T08:57:52;5.00;18.80
3037;DHT22;1528;52.550;13.408;2023-01-28T09:00:38;5.10;19.00
3037;DHT22;1528;52.550;13.408;2023-01-28T09:03:24;4.90;18.60
3037;DHT22;1528;52.550;13.408;2023-01-28T09:06:11;4.60;19.10
3037;DHT22;1528;52.550;13.408;2023-01-28T09:08:57;4.70;19.60
3037;DHT22;1528;52.550;13.408;2023-01-28T09:11:42;4.80;19.40
3037;DHT22;1528;52.550;13.408;2023-01-28T09:14:28;4.90;18.90
3037;DHT22;1528;52.550;13.408;2023-01-28T09:17:14;5.00;18.50
3037;DHT22;1528;52.550;13.408;2023-01-28T09:19:59;5.20;18.80
3037;DHT22;1528;52.550;13.408;2023-01-28T09:22:46;5.20;18.70
3037;DHT22;1528;52.550;13.408;2023-01-28T09:25:32;5.00;17.90
3037;DHT22;1528;52.550;13.408;2023-01-28T09:28:19;5.00;18.40
3037;DHT22;1528;52.550;13.408;2023-01-28T09:31:07;5.20;18.20
3037;DHT22;1528;52.550;13.408;2023-01-28T09:33:52;5.00;18.50
3037;DHT22;1528;52.550;13.408;2023-01-28T09:36:40;5.20;18.60
3037;DHT22;1528;52.550;13.408;2023-01-28T09:39:27;5.20;18.20
3037;DHT22;1528;52.550;13.408;2023-01-28T09:42:26;5.40;17.60
3037;DHT22;1528;52.550;13.408;2023-01-28T09:45:20;5.50;17.60
3037;DHT22;1528;52.550;13.408;2023-01-28T09:48:13;5.60;17.00
3037;DHT22;1528;52.550;13.408;2023-01-28T09:51:00;5.40;17.10
3037;DHT22;1528;52.550;13.408;2023-01-28T09:53:49;5.50;17.20
3037;DHT22;1528;52.550;13.408;2023-01-28T09:56:42;5.60;16.90
3037;DHT22;1528;52.550;13.408;2023-01-28T09:59:32;5.70;17.20
3037;DHT22;1528;52.550;13.408;2023-01-28T10:02:36;5.70;17.20
3037;DHT22;1528;52.550;13.408;2023-01-28T10:05:31;5.60;17.30
3037;DHT22;1528;52.550;13.408;2023-01-28T10:08:30;5.70;16.80
3037;DHT22;1528;52.550;13.408;2023-01-28T10:11:30;5.70;17.10
3037;DHT22;1528;52.550;13.408;2023-01-28T10:14:27;5.80;16.80
3037;DHT22;1528;52.550;13.408;2023-01-28T10:17:17;5.60;16.40
3037;DHT22;1528;52.550;13.408;2023-01-28T10:20:06;5.60;17.10
3037;DHT22;1528;52.550;13.408;2023-01-28T10:23:05;5.70;17.30
3037;DHT22;1528;52.550;13.408;2023-01-28T10:25:56;5.60;17.10
3037;DHT22;1528;52.550;13.408;2023-01-28T10:28:44;5.70;16.70
3037;DHT22;1528;52.550;13.408;2023-01-28T10:31:40;5.80;16.80
3037;DHT22;1528;52.550;13.408;2023-01-28T10:34:27;5.90;16.00
3037;DHT22;1528;52.550;13.408;2023-01-28T10:37:13;5.90;16.10
3037;DHT22;1528;52.550;13.408;2023-01-28T10:40:00;5.60;16.10
3037;DHT22;1528;52.550;13.408;2023-01-28T10:42:46;5.80;16.60
3037;DHT22;1528;52.550;13.408;2023-01-28T10:45:36;5.80;16.70
3037;DHT22;1528;52.550;13.408;2023-01-28T10:48:29;5.80;16.70
3037;DHT22;1528;52.550;13.408;2023-01-28T10:51:17;5.90;16.20
3037;DHT22;1528;52.550;13.408;2023-01-28T10:54:17;5.80;16.80
3037;DHT22;1528;52.550;13.408;2023-01-28T10:57:07;6.00;16.20
3037;DHT22;1528;52.550;13.408;2023-01-28T10:59:55;5.90;16.00
3037;DHT22;1528;52.550;13.408;2023-01-28T11:02:41;5.90;16.10
3037;DHT22;1528;52.550;13.408;2023-01-28T11:05:29;5.80;16.10
3037;DHT22;1528;52.550;13.408;2023-01-28T11:08:16;6.00;16.20
3037;DHT22;1528;52.550;13.408;2023-01-28T11:11:02;6.00;16.10
3037;DHT22;1528;52.550;13.408;2023-01-28T11:13:57;5.90;16.40
3037;DHT22;1528;52.550;13.408;2023-01-28T11:16:44;5.70;16.30
3037;DHT22;1528;52.550;13.408;2023-01-28T11:19:33;5.30;17.00
3037;DHT22;1528;52.550;13.408;2023-01-28T11:22:29;5.50;16.70
3037;DHT22;1528;52.550;13.408;2023-01-28T11:25:17;5.50;17.20
3037;DHT22;1528;52.550;13.408;2023-01-28T11:28:07;5.60;16.90
3037;DHT22;1528;52.550;13.408;2023-01-28T11:31:01;5.50;17.40
3037;DHT22;1528;52.550;13.408;2023-01-28T11:33:49;5.60;17.30
3037;DHT22;1528;52.550;13.408;2023-01-28T11:36:36;5.70;16.90
3037;DHT22;1528;52.550;13.408;2023-01-28T11:39:25;5.80;16.90
3037;DHT22;1528;52.550;13.408;2023-01-28T11:42:16;5.80;16.70
3037;DHT22;1528;52.550;13.408;2023-01-28T11:45:02;5.30;17.30
3037;DHT22;1528;52.550;13.408;2023-01-28T11:47:59;5.40;17.50
3037;DHT22;1528;52.550;13.408;2023-01-28T11:50:52;5.50;17.00
3037;DHT22;1528;52.550;13.408;2023-01-28T11:53:53;5.70;17.70
3037;DHT22;1528;52.550;13.408;2023-01-28T11:57:00;5.80;17.60
3037;DHT22;1528;52.550;13.408;2023-01-28T11:59:56;5.50;18.50
3037;DHT22;1528;52.550;13.408;2023-01-28T12:02:53;5.20;19.10
3037;DHT22;1528;52.550;13.408;2023-01-28T12:05:46;5.40;19.30
3037;DHT22;1528;52.550;13.408;2023-01-28T12:08:37;5.10;19.60
3037;DHT22;1528;52.550;13.408;2023-01-28T12:11:31;5.00;20.60
3037;DHT22;1528;52.550;13.408;2023-01-28T12:18:07;4.70;21.10
3037;DHT22;1528;52.550;13.408;2023-01-28T12:21:02;4.60;21.70
3037;DHT22;1528;52.550;13.408;2023-01-28T12:24:02;4.50;22.10
3037;DHT22;1528;52.550;13.408;2023-01-28T12:26:58;4.60;22.20
3037;DHT22;1528;52.550;13.408;2023-01-28T12:29:55;4.60;22.40
3037;DHT22;1528;52.550;13.408;2023-01-28T12:32:55;4.80;22.00
3037;DHT22;1528;52.550;13.408;2023-01-28T12:35:55;4.60;22.00
3037;DHT22;1528;52.550;13.408;2023-01-28T12:38:52;4.50;22.30
3037;DHT22;1528;52.550;13.408;2023-01-28T12:41:44;4.50;22.10
3037;DHT22;1528;52.550;13.408;2023-01-28T12:44:34;4.50;22.30
3037;DHT22;1528;52.550;13.408;2023-01-28T12:47:28;4.40;22.10
3037;DHT22;1528;52.550;13.408;2023-01-28T12:50:19;4.30;22.30
3037;DHT22;1528;52.550;13.408;2023-01-28T12:53:19;4.30;22.20
3037;DHT22;1528;52.550;13.408;2023-01-28T12:56:09;4.30;22.30
3037;DHT22;1528;52.550;13.408;2023-01-28T12:59:02;4.50;21.90
3037;DHT22;1528;52.550;13.408;2023-01-28T13:01:54;4.40;22.20
3037;DHT22;1528;52.550;13.408;2023-01-28T13:04:46;4.60;21.50
3037;DHT22;1528;52.550;13.408;2023-01-28T13:07:40;4.40;21.60
3037;DHT22;1528;52.550;13.408;2023-01-28T13:10:33;4.40;21.40
3037;DHT22;1528;52.550;13.408;2023-01-28T13:13:26;4.40;21.20
3037;DHT22;1528;52.550;13.408;2023-01-28T13:16:13;4.40;22.20
3037;DHT22;1528;52.550;13.408;2023-01-28T13:19:07;4.60;22.70
3037;DHT22;1528;52.550;13.408;2023-01-28T13:21:54;4.50;24.00
3037;DHT22;1528;52.550;13.408;2023-01-28T13:24:40;3.80;26.40
3037;DHT22;1528;52.550;13.408;2023-01-28T13:27:26;4.00;26.90
3037;DHT22;1528;52.550;13.408;2023-01-28T13:30:23;3.90;26.90
3037;DHT22;1528;52.550;13.408;2023-01-28T13:33:25;4.10;25.80
3037;DHT22;1528;52.550;13.408;2023-01-28T13:36:22;3.90;25.00
3037;DHT22;1528;52.550;13.408;2023-01-28T13:39:18;4.20;24.60
3037;DHT22;1528;52.550;13.408;2023-01-28T13:42:21;4.10;24.20
3037;DHT22;1528;52.550;13.408;2023-01-28T13:45:21;4.30;22.90
3037;DHT22;1528;52.550;13.408;2023-01-28T13:48:20;4.30;22.60
3037;DHT22;1528;52.550;13.408;2023-01-28T13:51:18;4.50;22.50
3037;DHT22;1528;52.550;13.408;2023-01-28T13:54:07;4.60;21.20
3037;DHT22;1528;52.550;13.408;2023-01-28T13:57:13;4.50;22.30
3037;DHT22;1528;52.550;13.408;2023-01-28T14:00:10;4.70;21.20
3037;DHT22;1528;52.550;13.408;2023-01-28T14:03:27;4.90;21.10
3037;DHT22;1528;52.550;13.408;2023-01-28T14:06:45;4.70;20.40
3037;DHT22;1528;52.550;13.408;2023-01-28T14:10:14;4.70;20.60
3037;DHT22;1528;52.550;13.408;2023-01-28T14:13:17;5.00;18.90
3037;DHT22;1528;52.550;13.408;2023-01-28T14:16:19;5.10;19.40
3037;DHT22;1528;52.550;13.408;2023-01-28T14:19:10;5.20;18.40
3037;DHT22;1528;52.550;13.408;2023-01-28T14:21:56;5.10;18.30
3037;DHT22;1528;52.550;13.408;2023-01-28T14:24:42;5.00;18.60
3037;DHT22;1528;52.550;13.408;2023-01-28T14:27:31;5.10;18.70
3037;DHT22;1528;52.550;13.408;2023-01-28T14:30:28;5.20;18.30
3037;DHT22;1528;52.550;13.408;2023-01-28T14:33:16;4.90;18.60
3037;DHT22;1528;52.550;13.408;2023-01-28T14:36:05;5.10;18.20
3037;DHT22;1528;52.550;13.408;2023-01-28T14:38:51;5.20;17.60
3037;DHT22;1528;52.550;13.408;2023-01-28T14:41:42;5.30;17.40
3037;DHT22;1528;52.550;13.408;2023-01-28T14:44:31;5.10;17.50
3037;DHT22;1528;52.550;13.408;2023-01-28T14:47:41;5.10;17.20
3037;DHT22;1528;52.550;13.408;2023-01-28T14:50:41;5.00;17.40
3037;DHT22;1528;52.550;13.408;2023-01-28T14:53:46;4.90;16.90
3037;DHT22;1528;52.550;13.408;2023-01-28T14:56:47;4.60;17.20
3037;DHT22;1528;52.550;13.408;2023-01-28T14:59:40;4.30;17.30
3037;DHT22;1528;52.550;13.408;2023-01-28T15:02:30;4.20;17.60
3037;DHT22;1528;52.550;13.408;2023-01-28T15:05:18;4.20;18.40
3037;DHT22;1528;52.550;13.408;2023-01-28T15:08:04;4.30;18.00
3037;DHT22;1528;52.550;13.408;2023-01-28T15:10:51;4.50;18.00
3037;DHT22;1528;52.550;13.408;2023-01-28T15:13:40;4.50;18.50
3037;DHT22;1528;52.550;13.408;2023-01-28T15:16:28;4.40;18.00
3037;DHT22;1528;52.550;13.408;2023-01-28T15:19:24;4.20;18.60
3037;DHT22;1528;52.550;13.408;2023-01-28T15:22:14;4.00;19.10
3037;DHT22;1528;52.550;13.408;2023-01-28T15:25:00;3.90;19.50
3037;DHT22;1528;52.550;13.408;2023-01-28T15:27:46;4.20;19.40
3037;DHT22;1528;52.550;13.408;2023-01-28T15:30:31;4.10;19.50
3037;DHT22;1528;52.550;13.408;2023-01-28T15:33:20;4.20;19.80
3037;DHT22;1528;52.550;13.408;2023-01-28T15:36:09;4.20;19.60
3037;DHT22;1528;52.550;13.408;2023-01-28T15:38:55;4.40;19.60
3037;DHT22;1528;52.550;13.408;2023-01-28T15:41:43;4.50;18.80
3037;DHT22;1528;52.550;13.408;2023-01-28T15:44:31;4.30;19.30
3037;DHT22;1528;52.550;13.408;2023-01-28T15:47:22;4.10;19.90
3037;DHT22;1528;52.550;13.408;2023-01-28T15:50:16;4.20;20.10
3037;DHT22;1528;52.550;13.408;2023-01-28T15:53:07;4.30;19.00
3037;DHT22;1528;52.550;13.408;2023-01-28T15:56:03;4.20;19.60
3037;DHT22;1528;52.550;13.408;2023-01-28T15:58:49;4.30;19.60
3037;DHT22;1528;52.550;13.408;2023-01-28T16:01:35;4.30;19.50
3037;DHT22;1528;52.550;13.408;2023-01-28T16:04:22;4.00;20.10
3037;DHT22;1528;52.550;13.408;2023-01-28T16:07:09;4.20;19.60
3037;DHT22;1528;52.550;13.408;2023-01-28T16:09:57;4.20;18.90
3037;DHT22;1528;52.550;13.408;2023-01-28T16:12:47;4.10;19.40
3037;DHT22;1528;52.550;13.408;2023-01-28T16:15:36;4.10;19.50
3037;DHT22;1528;52.550;13.408;2023-01-28T16:18:29;4.10;19.40
3037;DHT22;1528;52.550;13.408;2023-01-28T16:21:20;4.10;19.20
3037;DHT22;1528;52.550;13.408;2023-01-28T16:24:21;4.20;19.30
3037;DHT22;1528;52.550;13.408;2023-01-28T16:27:20;4.30;19.20
3037;DHT22;1528;52.550;13.408;2023-01-28T16:30:07;4.10;19.40
3037;DHT22;1528;52.550;13.408;2023-01-28T16:32:53;4.00;19.40
3037;DHT22;1528;52.550;13.408;2023-01-28T16:35:39;4.00;19.80
3037;DHT22;1528;52.550;13.408;2023-01-28T16:38:25;4.00;19.50
3037;DHT22;1528;52.550;13.408;2023-01-28T16:41:12;4.00;19.60
3037;DHT22;1528;52.550;13.408;2023-01-28T16:43:59;3.80;20.60
3037;DHT22;1528;52.550;13.408;2023-01-28T16:46:48;3.80;20.00
3037;DHT22;1528;52.550;13.408;2023-01-28T16:49:34;3.90;19.30
3037;DHT22;1528;52.550;13.408;2023-01-28T16:52:20;3.90;19.40
3037;DHT22;1528;52.550;13.408;2023-01-28T16:55:08;4.00;19.40
3037;DHT22;1528;52.550;13.408;2023-01-28T16:57:56;3.90;18.90
3037;DHT22;1528;52.550;13.408;2023-01-28T17:00:43;3.80;19.00
3037;DHT22;1528;52.550;13.408;2023-01-28T17:03:28;3.60;19.50
3037;DHT22;1528;52.550;13.408;2023-01-28T17:06:18;3.80;19.20
3037;DHT22;1528;52.550;13.408;2023-01-28T17:09:03;3.70;19.50
3037;DHT22;1528;52.550;13.408;2023-01-28T17:11:49;3.70;19.60
3037;DHT22;1528;52.550;13.408;2023-01-28T17:14:35;3.70;20.00
3037;DHT22;1528;52.550;13.408;2023-01-28T17:17:23;3.70;20.00
3037;DHT22;1528;52.550;13.408;2023-01-28T17:20:10;3.50;20.40
3037;DHT22;1528;52.550;13.408;2023-01-28T17:22:58;3.60;20.50
3037;DHT22;1528;52.550;13.408;2023-01-28T17:25:43;3.70;20.00
3037;DHT22;1528;52.550;13.408;2023-01-28T17:28:29;3.50;20.80
3037;DHT22;1528;52.550;13.408;2023-01-28T17:31:14;3.50;20.60
3037;DHT22;1528;52.550;13.408;2023-01-28T17:34:02;3.50;20.80
3037;DHT22;1528;52.550;13.408;2023-01-28T17:36:49;3.60;20.40
3037;DHT22;1528;52.550;13.408;2023-01-28T17:39:35;3.60;20.10
3037;DHT22;1528;52.550;13.408;2023-01-28T17:42:20;3.70;20.00
3037;DHT22;1528;52.550;13.408;2023-01-28T17:45:07;3.50;20.30
3037;DHT22;1528;52.550;13.408;2023-01-28T17:47:53;3.40;20.80
3037;DHT22;1528;52.550;13.408;2023-01-28T17:50:40;3.50;20.70
3037;DHT22;1528;52.550;13.408;2023-01-28T17:53:26;3.40;20.70
3037;DHT22;1528;52.550;13.408;2023-01-28T17:56:14;3.50;20.70
3037;DHT22;1528;52.550;13.408;2023-01-28T17:59:01;3.50;20.60
3037;DHT22;1528;52.550;13.408;2023-01-28T18:01:49;3.40;20.90
3037;DHT22;1528;52.550;13.408;2023-01-28T18:04:37;3.40;21.10
3037;DHT22;1528;52.550;13.408;2023-01-28T18:07:24;3.40;20.50
3037;DHT22;1528;52.550;13.408;2023-01-28T18:10:10;3.30;20.50
3037;DHT22;1528;52.550;13.408;2023-01-28T18:12:56;3.20;21.10
3037;DHT22;1528;52.550;13.408;2023-01-28T18:15:42;3.20;21.10
3037;DHT22;1528;52.550;13.408;2023-01-28T18:18:28;3.20;20.90
3037;DHT22;1528;52.550;13.408;2023-01-28T18:21:22;3.10;21.10
3037;DHT22;1528;52.550;13.408;2023-01-28T18:24:15;2.80;21.50
3037;DHT22;1528;52.550;13.408;2023-01-28T18:27:01;2.90;21.60
3037;DHT22;1528;52.550;13.408;2023-01-28T18:29:48;2.70;22.00
3037;DHT22;1528;52.550;13.408;2023-01-28T18:32:35;2.70;22.10